sensor_id;sensor_type;location;lat;lon;timestamp;pressure;altitude;pressure_sealevel;temperature;humidity
15229;BME280;7717;47.792;12.076;2023-06-22T00:02:05;96312.00;;;20.17;83.08
15229;BME280;7717;47.792;12.076;2023-06-22T00:04:31;96300.84;;;20.20;81.11
15229;BME280;7717;47.792;12.076;2023-06-22T00:06:56;96301.88;;;20.19;81.82
15229;BME280;7717;47.792;12.076;2023-06-22T00:09:21;96310.50;;;20.21;82.10
15229;BME280;7717;47.792;12.076;2023-06-22T00:11:47;96314.69;;;20.17;81.66
15229;BME280;7717;47.792;12.076;2023-06-22T00:14:12;96316.94;;;20.20;81.18
15229;BME280;7717;47.792;12.076;2023-06-22T00:16:37;96313.03;;;20.16;81.10
15229;BME280;7717;47.792;12.076;2023-06-22T00:19:03;96299.41;;;20.06;81.51
15229;BME280;7717;47.792;12.076;2023-06-22T00:21:29;96302.13;;;19.88;81.13
15229;BME280;7717;47.792;12.076;2023-06-22T00:23:55;96290.41;;;20.00;82.14
15229;BME280;7717;47.792;12.076;2023-06-22T00:26:21;96281.03;;;19.91;82.71
15229;BME280;7717;47.792;12.076;2023-06-22T00:28:47;96277.56;;;20.02;83.49
15229;BME280;7717;47.792;12.076;2023-06-22T00:31:12;96283.38;;;19.88;82.51
15229;BME280;7717;47.792;12.076;2023-06-22T00:33:38;96287.00;;;19.93;81.50
15229;BME280;7717;47.792;12.076;2023-06-22T00:36:04;96285.06;;;20.00;83.22
15229;BME280;7717;47.792;12.076;2023-06-22T00:38:29;96272.97;;;20.21;82.17
15229;BME280;7717;47.792;12.076;2023-06-22T00:40:54;96279.00;;;20.05;81.32
15229;BME280;7717;47.792;12.076;2023-06-22T00:43:20;96276.28;;;19.93;82.71
15229;BME280;7717;47.792;12.076;2023-06-22T00:45:45;96280.22;;;19.91;82.58
15229;BME280;7717;47.792;12.076;2023-06-22T00:48:12;96264.25;;;19.84;81.84
15229;BME280;7717;47.792;12.076;2023-06-22T00:50:38;96245.69;;;19.71;81.86
15229;BME280;7717;47.792;12.076;2023-06-22T00:53:06;96253.34;;;19.67;82.10
15229;BME280;7717;47.792;12.076;2023-06-22T00:55:35;96259.16;;;19.64;82.64
15229;BME280;7717;47.792;12.076;2023-06-22T00:58:06;96259.88;;;19.71;83.79
15229;BME280;7717;47.792;12.076;2023-06-22T01:00:35;96253.84;;;19.76;83.98
15229;BME280;7717;47.792;12.076;2023-06-22T01:03:01;96251.41;;;19.74;83.52
15229;BME280;7717;47.792;12.076;2023-06-22T01:05:27;96253.94;;;19.69;82.59
15229;BME280;7717;47.792;12.076;2023-06-22T01:10:55;96257.91;;;19.67;84.24
15229;BME280;7717;47.792;12.076;2023-06-22T01:13:35;96147.63;;;18.92;83.95
15229;BME280;7717;47.792;12.076;2023-06-22T01:16:08;96254.56;;;19.53;84.22
15229;BME280;7717;47.792;12.076;2023-06-22T01:18:35;96246.88;;;19.57;83.16
15229;BME280;7717;47.792;12.076;2023-06-22T01:21:05;96249.78;;;19.55;83.51
15229;BME280;7717;47.792;12.076;2023-06-22T01:26:09;96249.78;;;19.37;84.95
15229;BME280;7717;47.792;12.076;2023-06-22T01:28:50;96255.28;;;19.24;85.20
15229;BME280;7717;47.792;12.076;2023-06-22T01:31:20;96260.78;;;19.29;83.53
15229;BME280;7717;47.792;12.076;2023-06-22T01:33:52;96241.09;;;19.05;84.91
15229;BME280;7717;47.792;12.076;2023-06-22T01:36:20;96256.94;;;19.07;83.98
15229;BME280;7717;47.792;12.076;2023-06-22T01:38:47;96265.09;;;18.93;83.46
15229;BME280;7717;47.792;12.076;2023-06-22T01:41:13;96260.09;;;18.79;84.26
15229;BME280;7717;47.792;12.076;2023-06-22T01:43:38;96255.38;;;18.81;85.43
15229;BME280;7717;47.792;12.076;2023-06-22T01:46:04;96256.59;;;18.60;85.14
15229;BME280;7717;47.792;12.076;2023-06-22T01:48:30;96239.06;;;18.64;84.90
15229;BME280;7717;47.792;12.076;2023-06-22T01:50:56;96241.81;;;18.51;85.00
15229;BME280;7717;47.792;12.076;2023-06-22T01:53:22;96238.00;;;18.40;85.59
15229;BME280;7717;47.792;12.076;2023-06-22T01:55:48;96238.78;;;18.72;87.71
15229;BME280;7717;47.792;12.076;2023-06-22T01:58:13;96180.56;;;18.49;87.60
15229;BME280;7717;47.792;12.076;2023-06-22T02:03:34;96228.00;;;18.79;87.06
15229;BME280;7717;47.792;12.076;2023-06-22T02:06:14;96218.34;;;18.96;86.80
15229;BME280;7717;47.792;12.076;2023-06-22T02:08:49;96212.66;;;18.92;86.75
15229;BME280;7717;47.792;12.076;2023-06-22T02:11:18;96209.38;;;18.90;86.40
15229;BME280;7717;47.792;12.076;2023-06-22T02:13:49;96211.16;;;18.78;85.98
15229;BME280;7717;47.792;12.076;2023-06-22T02:16:15;96208.41;;;18.67;84.73
15229;BME280;7717;47.792;12.076;2023-06-22T02:18:49;96214.09;;;18.70;85.97
15229;BME280;7717;47.792;12.076;2023-06-22T02:21:18;96174.28;;;18.62;86.27
15229;BME280;7717;47.792;12.076;2023-06-22T02:23:44;96213.47;;;18.93;85.54
15229;BME280;7717;47.792;12.076;2023-06-22T02:26:09;96199.78;;;18.83;85.67
15229;BME280;7717;47.792;12.076;2023-06-22T02:28:35;96196.13;;;18.77;86.72
15229;BME280;7717;47.792;12.076;2023-06-22T02:31:00;96193.25;;;18.60;85.47
15229;BME280;7717;47.792;12.076;2023-06-22T02:33:26;96177.03;;;18.31;85.55
15229;BME280;7717;47.792;12.076;2023-06-22T02:35:52;96192.25;;;18.30;86.61
15229;BME280;7717;47.792;12.076;2023-06-22T02:38:18;96190.66;;;18.22;85.99
15229;BME280;7717;47.792;12.076;2023-06-22T02:40:44;96194.91;;;18.30;87.33
15229;BME280;7717;47.792;12.076;2023-06-22T02:43:10;96196.34;;;18.33;87.05
15229;BME280;7717;47.792;12.076;2023-06-22T02:45:35;96199.63;;;18.35;87.19
15229;BME280;7717;47.792;12.076;2023-06-22T02:48:00;96203.16;;;18.53;86.80
15229;BME280;7717;47.792;12.076;2023-06-22T02:50:26;96170.06;;;18.30;86.91
15229;BME280;7717;47.792;12.076;2023-06-22T02:52:51;96198.44;;;18.49;86.00
15229;BME280;7717;47.792;12.076;2023-06-22T02:55:17;96200.41;;;18.35;85.47
15229;BME280;7717;47.792;12.076;2023-06-22T02:57:45;96173.44;;;18.18;88.73
15229;BME280;7717;47.792;12.076;2023-06-22T03:00:13;96202.31;;;18.35;86.02
15229;BME280;7717;47.792;12.076;2023-06-22T03:02:44;96215.94;;;18.26;86.53
15229;BME280;7717;47.792;12.076;2023-06-22T03:05:10;96214.78;;;18.41;87.35
15229;BME280;7717;47.792;12.076;2023-06-22T03:07:39;96207.03;;;18.33;85.86
15229;BME280;7717;47.792;12.076;2023-06-22T03:10:05;96213.19;;;18.33;85.66
15229;BME280;7717;47.792;12.076;2023-06-22T03:12:30;96216.28;;;18.55;87.53
15229;BME280;7717;47.792;12.076;2023-06-22T03:14:56;96217.75;;;18.51;85.96
15229;BME280;7717;47.792;12.076;2023-06-22T03:17:21;96223.44;;;18.36;85.95
15229;BME280;7717;47.792;12.076;2023-06-22T03:19:46;96228.72;;;18.43;85.83
15229;BME280;7717;47.792;12.076;2023-06-22T03:22:12;96219.88;;;18.42;86.06
15229;BME280;7717;47.792;12.076;2023-06-22T03:24:37;96232.28;;;18.61;86.85
15229;BME280;7717;47.792;12.076;2023-06-22T03:27:04;96225.63;;;18.46;85.66
15229;BME280;7717;47.792;12.076;2023-06-22T03:29:30;96225.22;;;18.42;86.07
15229;BME280;7717;47.792;12.076;2023-06-22T03:31:56;96236.22;;;18.34;86.04
15229;BME280;7717;47.792;12.076;2023-06-22T03:34:21;96241.31;;;18.36;87.33
15229;BME280;7717;47.792;12.076;2023-06-22T03:36:47;96221.16;;;18.15;86.18
15229;BME280;7717;47.792;12.076;2023-06-22T03:39:12;96239.25;;;18.13;86.15
15229;BME280;7717;47.792;12.076;2023-06-22T03:41:38;96239.06;;;18.14;86.46
15229;BME280;7717;47.792;12.076;2023-06-22T03:44:04;96245.22;;;18.08;86.10
15229;BME280;7717;47.792;12.076;2023-06-22T03:46:29;96248.72;;;17.77;87.23
15229;BME280;7717;47.792;12.076;2023-06-22T03:48:54;96226.91;;;17.42;88.17
15229;BME280;7717;47.792;12.076;2023-06-22T03:51:20;96243.16;;;17.41;89.02
15229;BME280;7717;47.792;12.076;2023-06-22T03:53:46;96233.97;;;17.24;90.11
15229;BME280;7717;47.792;12.076;2023-06-22T03:56:11;96257.75;;;17.32;89.46
15229;BME280;7717;47.792;12.076;2023-06-22T03:58:37;96256.56;;;17.28;89.95
15229;BME280;7717;47.792;12.076;2023-06-22T04:01:08;96264.75;;;17.26;89.42
15229;BME280;7717;47.792;12.076;2023-06-22T04:03:36;96263.31;;;17.24;89.02
15229;BME280;7717;47.792;12.076;2023-06-22T04:06:02;96259.00;;;17.29;88.34
15229;BME280;7717;47.792;12.076;2023-06-22T04:08:27;96247.88;;;17.39;88.70
15229;BME280;7717;47.792;12.076;2023-06-22T04:10:53;96255.28;;;17.37;88.22
15229;BME280;7717;47.792;12.076;2023-06-22T04:13:18;96252.78;;;17.42;88.05
15229;BME280;7717;47.792;12.076;2023-06-22T04:15:44;96243.31;;;17.53;87.96
15229;BME280;7717;47.792;12.076;2023-06-22T04:18:10;96252.28;;;17.65;88.16
15229;BME280;7717;47.792;12.076;2023-06-22T04:20:35;96248.13;;;17.75;87.65
15229;BME280;7717;47.792;12.076;2023-06-22T04:23:01;96246.06;;;17.77;87.31
15229;BME280;7717;47.792;12.076;2023-06-22T04:25:26;96245.66;;;17.80;86.79
15229;BME280;7717;47.792;12.076;2023-06-22T04:27:52;96217.13;;;17.74;86.91
15229;BME280;7717;47.792;12.076;2023-06-22T04:30:17;96252.09;;;17.98;86.46
15229;BME280;7717;47.792;12.076;2023-06-22T04:32:43;96247.69;;;18.10;86.57
15229;BME280;7717;47.792;12.076;2023-06-22T04:35:10;96254.78;;;18.22;85.95
15229;BME280;7717;47.792;12.076;2023-06-22T04:37:35;96244.81;;;18.36;85.96
15229;BME280;7717;47.792;12.076;2023-06-22T04:40:00;96232.22;;;18.43;85.61
15229;BME280;7717;47.792;12.076;2023-06-22T04:42:26;96239.13;;;18.57;85.30
15229;BME280;7717;47.792;12.076;2023-06-22T04:44:52;96230.22;;;18.63;85.05
15229;BME280;7717;47.792;12.076;2023-06-22T04:47:17;96229.50;;;18.75;84.96
15229;BME280;7717;47.792;12.076;2023-06-22T04:49:42;96218.88;;;18.86;84.75
15229;BME280;7717;47.792;12.076;2023-06-22T04:52:09;96234.03;;;19.11;84.08
15229;BME280;7717;47.792;12.076;2023-06-22T04:54:36;96157.59;;;18.85;83.37
15229;BME280;7717;47.792;12.076;2023-06-22T04:57:03;96230.97;;;19.43;83.26
15229;BME280;7717;47.792;12.076;2023-06-22T04:59:30;96229.91;;;19.63;82.12
15229;BME280;7717;47.792;12.076;2023-06-22T05:02:00;96229.06;;;19.80;81.38
15229;BME280;7717;47.792;12.076;2023-06-22T05:04:29;96229.72;;;20.06;81.32
15229;BME280;7717;47.792;12.076;2023-06-22T05:07:05;96222.53;;;20.30;81.29
15229;BME280;7717;47.792;12.076;2023-06-22T05:09:31;96221.56;;;20.54;79.75
15229;BME280;7717;47.792;12.076;2023-06-22T05:11:56;96230.63;;;20.76;79.20
15229;BME280;7717;47.792;12.076;2023-06-22T05:14:22;96233.66;;;21.03;77.82
15229;BME280;7717;47.792;12.076;2023-06-22T05:16:48;96219.88;;;21.23;77.71
15229;BME280;7717;47.792;12.076;2023-06-22T05:19:14;96216.47;;;21.39;76.97
15229;BME280;7717;47.792;12.076;2023-06-22T05:21:39;96213.78;;;21.39;77.37
15229;BME280;7717;47.792;12.076;2023-06-22T05:24:04;96203.88;;;21.56;76.68
15229;BME280;7717;47.792;12.076;2023-06-22T05:26:32;96215.22;;;21.58;77.29
15229;BME280;7717;47.792;12.076;2023-06-22T05:28:58;96217.81;;;21.53;77.64
15229;BME280;7717;47.792;12.076;2023-06-22T05:31:24;96214.25;;;21.64;76.58
15229;BME280;7717;47.792;12.076;2023-06-22T05:33:51;96208.38;;;21.67;76.62
15229;BME280;7717;47.792;12.076;2023-06-22T05:36:17;96162.31;;;21.59;76.62
15229;BME280;7717;47.792;12.076;2023-06-22T05:38:45;96205.72;;;21.96;75.87
15229;BME280;7717;47.792;12.076;2023-06-22T05:41:10;96202.25;;;21.84;75.76
15229;BME280;7717;47.792;12.076;2023-06-22T05:43:36;96202.34;;;21.89;76.18
15229;BME280;7717;47.792;12.076;2023-06-22T05:46:01;96214.97;;;21.88;76.40
15229;BME280;7717;47.792;12.076;2023-06-22T05:48:27;96211.81;;;21.91;76.37
15229;BME280;7717;47.792;12.076;2023-06-22T05:50:53;96221.22;;;21.77;76.61
15229;BME280;7717;47.792;12.076;2023-06-22T05:53:19;96210.81;;;21.80;76.52
15229;BME280;7717;47.792;12.076;2023-06-22T05:55:44;96206.34;;;21.86;76.44
15229;BME280;7717;47.792;12.076;2023-06-22T05:58:10;96202.81;;;21.97;75.97
15229;BME280;7717;47.792;12.076;2023-06-22T06:00:35;96212.84;;;21.90;75.96
15229;BME280;7717;47.792;12.076;2023-06-22T06:03:01;96208.75;;;21.71;76.70
15229;BME280;7717;47.792;12.076;2023-06-22T06:05:30;96191.81;;;21.70;76.65
15229;BME280;7717;47.792;12.076;2023-06-22T06:07:56;96215.53;;;21.73;77.58
15229;BME280;7717;47.792;12.076;2023-06-22T06:10:22;96211.75;;;21.74;77.36
15229;BME280;7717;47.792;12.076;2023-06-22T06:12:47;96204.63;;;21.80;77.38
15229;BME280;7717;47.792;12.076;2023-06-22T06:15:12;96206.13;;;21.76;77.95
15229;BME280;7717;47.792;12.076;2023-06-22T06:17:53;96208.69;;;22.11;75.75
15229;BME280;7717;47.792;12.076;2023-06-22T06:20:23;96203.47;;;22.54;75.15
15229;BME280;7717;47.792;12.076;2023-06-22T06:22:49;96202.50;;;23.37;72.59
15229;BME280;7717;47.792;12.076;2023-06-22T06:25:15;96190.06;;;24.76;68.12
15229;BME280;7717;47.792;12.076;2023-06-22T06:27:46;96204.25;;;25.45;63.86
15229;BME280;7717;47.792;12.076;2023-06-22T06:30:13;96205.78;;;25.31;65.50
15229;BME280;7717;47.792;12.076;2023-06-22T06:32:39;96207.41;;;26.04;63.85
15229;BME280;7717;47.792;12.076;2023-06-22T06:35:08;96198.44;;;25.79;63.67
15229;BME280;7717;47.792;12.076;2023-06-22T06:37:39;96197.78;;;24.62;67.44
15229;BME280;7717;47.792;12.076;2023-06-22T06:40:06;96170.50;;;23.95;68.96
15229;BME280;7717;47.792;12.076;2023-06-22T06:42:38;96195.09;;;23.71;70.25
15229;BME280;7717;47.792;12.076;2023-06-22T06:45:06;96192.59;;;23.92;69.59
15229;BME280;7717;47.792;12.076;2023-06-22T06:47:32;96194.16;;;23.88;69.53
15229;BME280;7717;47.792;12.076;2023-06-22T06:49:57;96187.16;;;23.60;70.36
15229;BME280;7717;47.792;12.076;2023-06-22T06:52:22;96173.06;;;23.53;69.54
15229;BME280;7717;47.792;12.076;2023-06-22T06:54:48;96201.78;;;23.69;69.98
15229;BME280;7717;47.792;12.076;2023-06-22T06:57:13;96195.09;;;23.71;69.66
15229;BME280;7717;47.792;12.076;2023-06-22T06:59:40;96196.44;;;23.74;69.63
15229;BME280;7717;47.792;12.076;2023-06-22T07:02:05;96190.63;;;24.14;68.88
15229;BME280;7717;47.792;12.076;2023-06-22T07:04:31;96189.16;;;24.01;69.39
15229;BME280;7717;47.792;12.076;2023-06-22T07:07:01;96165.03;;;24.16;66.82
15229;BME280;7717;47.792;12.076;2023-06-22T07:09:27;96185.59;;;24.54;68.96
15229;BME280;7717;47.792;12.076;2023-06-22T07:11:52;96171.06;;;24.98;68.07
15229;BME280;7717;47.792;12.076;2023-06-22T07:14:18;96167.38;;;26.11;63.36
15229;BME280;7717;47.792;12.076;2023-06-22T07:16:43;96170.38;;;27.99;58.59
15229;BME280;7717;47.792;12.076;2023-06-22T07:19:32;96168.84;;;28.61;54.41
15229;BME280;7717;47.792;12.076;2023-06-22T07:21:56;96169.97;;;28.55;56.19
15229;BME280;7717;47.792;12.076;2023-06-22T07:24:22;96156.59;;;29.64;54.31
15229;BME280;7717;47.792;12.076;2023-06-22T07:26:48;96165.47;;;29.51;53.62
15229;BME280;7717;47.792;12.076;2023-06-22T07:29:17;96162.72;;;30.31;52.70
15229;BME280;7717;47.792;12.076;2023-06-22T07:31:43;96159.91;;;30.68;51.96
15229;BME280;7717;47.792;12.076;2023-06-22T07:34:08;96158.09;;;30.45;52.58
15229;BME280;7717;47.792;12.076;2023-06-22T07:36:33;96155.34;;;29.75;54.01
15229;BME280;7717;47.792;12.076;2023-06-22T07:39:01;96159.88;;;29.42;54.68
15229;BME280;7717;47.792;12.076;2023-06-22T07:41:28;96159.44;;;29.30;55.06
15229;BME280;7717;47.792;12.076;2023-06-22T07:43:53;96154.41;;;30.04;53.53
15229;BME280;7717;47.792;12.076;2023-06-22T07:46:18;96151.53;;;30.46;52.06
15229;BME280;7717;47.792;12.076;2023-06-22T07:48:44;96149.25;;;30.99;48.40
15229;BME280;7717;47.792;12.076;2023-06-22T07:51:09;96152.28;;;30.00;49.89
15229;BME280;7717;47.792;12.076;2023-06-22T07:53:37;96146.72;;;29.87;50.45
15229;BME280;7717;47.792;12.076;2023-06-22T07:56:03;96156.78;;;30.10;49.83
15229;BME280;7717;47.792;12.076;2023-06-22T07:58:32;96155.09;;;29.95;51.57
15229;BME280;7717;47.792;12.076;2023-06-22T08:00:57;96158.69;;;30.61;50.12
15229;BME280;7717;47.792;12.076;2023-06-22T08:03:22;96133.72;;;30.21;50.37
15229;BME280;7717;47.792;12.076;2023-06-22T08:05:48;96160.06;;;31.04;50.01
15229;BME280;7717;47.792;12.076;2023-06-22T08:08:14;96148.81;;;31.25;47.74
15229;BME280;7717;47.792;12.076;2023-06-22T08:10:39;96162.09;;;31.53;46.83
15229;BME280;7717;47.792;12.076;2023-06-22T08:13:06;96132.88;;;30.86;48.39
15229;BME280;7717;47.792;12.076;2023-06-22T08:15:31;96157.97;;;32.06;46.01
15229;BME280;7717;47.792;12.076;2023-06-22T08:17:56;96153.03;;;32.74;44.99
15229;BME280;7717;47.792;12.076;2023-06-22T08:20:23;96140.78;;;32.72;42.24
15229;BME280;7717;47.792;12.076;2023-06-22T08:22:48;96119.19;;;33.32;44.26
15229;BME280;7717;47.792;12.076;2023-06-22T08:25:13;96134.13;;;34.60;41.85
15229;BME280;7717;47.792;12.076;2023-06-22T08:27:39;96098.69;;;33.86;43.80
15229;BME280;7717;47.792;12.076;2023-06-22T08:30:06;96111.44;;;34.34;40.82
15229;BME280;7717;47.792;12.076;2023-06-22T08:32:32;96132.06;;;33.32;44.04
15229;BME280;7717;47.792;12.076;2023-06-22T08:34:58;96138.84;;;34.34;42.91
15229;BME280;7717;47.792;12.076;2023-06-22T08:37:24;96130.28;;;34.10;39.90
15229;BME280;7717;47.792;12.076;2023-06-22T08:39:55;96140.66;;;35.02;40.88
15229;BME280;7717;47.792;12.076;2023-06-22T08:42:21;96149.03;;;33.51;41.53
15229;BME280;7717;47.792;12.076;2023-06-22T08:44:48;96135.78;;;34.36;42.07
15229;BME280;7717;47.792;12.076;2023-06-22T08:47:13;96138.03;;;35.06;41.15
15229;BME280;7717;47.792;12.076;2023-06-22T08:49:39;96143.66;;;35.56;39.52
15229;BME280;7717;47.792;12.076;2023-06-22T08:52:04;96142.78;;;35.35;40.52
15229;BME280;7717;47.792;12.076;2023-06-22T08:54:30;96132.94;;;36.34;39.52
15229;BME280;7717;47.792;12.076;2023-06-22T08:56:58;96140.97;;;36.39;38.75
15229;BME280;7717;47.792;12.076;2023-06-22T08:59:23;96138.97;;;34.55;42.36
15229;BME280;7717;47.792;12.076;2023-06-22T09:01:49;96145.75;;;35.51;39.91
15229;BME280;7717;47.792;12.076;2023-06-22T09:04:15;96146.03;;;34.82;40.04
15229;BME280;7717;47.792;12.076;2023-06-22T09:06:40;96143.19;;;35.16;41.42
15229;BME280;7717;47.792;12.076;2023-06-22T09:09:12;96125.22;;;34.89;41.79
15229;BME280;7717;47.792;12.076;2023-06-22T09:11:37;96133.81;;;34.53;41.27
15229;BME280;7717;47.792;12.076;2023-06-22T09:14:03;96134.41;;;33.56;43.73
15229;BME280;7717;47.792;12.076;2023-06-22T09:16:29;96124.13;;;34.56;42.34
15229;BME280;7717;47.792;12.076;2023-06-22T09:18:55;96135.63;;;35.04;41.63
15229;BME280;7717;47.792;12.076;2023-06-22T09:21:20;96128.97;;;35.14;40.87
15229;BME280;7717;47.792;12.076;2023-06-22T09:23:46;96135.25;;;35.53;38.88
15229;BME280;7717;47.792;12.076;2023-06-22T09:26:15;96126.97;;;36.65;38.92
15229;BME280;7717;47.792;12.076;2023-06-22T09:28:41;96107.75;;;35.32;37.84
15229;BME280;7717;47.792;12.076;2023-06-22T09:31:06;96124.63;;;35.13;41.07
15229;BME280;7717;47.792;12.076;2023-06-22T09:33:32;96123.00;;;34.74;42.19
15229;BME280;7717;47.792;12.076;2023-06-22T09:35:57;96123.66;;;35.97;40.18
15229;BME280;7717;47.792;12.076;2023-06-22T09:38:23;96107.38;;;37.12;36.84
15229;BME280;7717;47.792;12.076;2023-06-22T09:40:49;96111.59;;;36.10;39.01
15229;BME280;7717;47.792;12.076;2023-06-22T09:43:14;96115.75;;;35.45;41.29
15229;BME280;7717;47.792;12.076;2023-06-22T09:45:39;96115.59;;;35.71;40.23
15229;BME280;7717;47.792;12.076;2023-06-22T09:48:05;96112.84;;;36.54;39.29
15229;BME280;7717;47.792;12.076;2023-06-22T09:50:30;96112.22;;;35.95;39.59
15229;BME280;7717;47.792;12.076;2023-06-22T09:52:56;96110.66;;;35.35;39.67
15229;BME280;7717;47.792;12.076;2023-06-22T09:55:22;96102.97;;;36.00;39.66
15229;BME280;7717;47.792;12.076;2023-06-22T09:57:47;96112.47;;;35.52;40.91
15229;BME280;7717;47.792;12.076;2023-06-22T10:00:15;96101.31;;;36.40;38.93
15229;BME280;7717;47.792;12.076;2023-06-22T10:02:44;96094.63;;;37.31;35.68
15229;BME280;7717;47.792;12.076;2023-06-22T10:05:10;96065.56;;;36.40;38.62
15229;BME280;7717;47.792;12.076;2023-06-22T10:07:35;96090.34;;;36.97;37.95
15229;BME280;7717;47.792;12.076;2023-06-22T10:10:06;96099.38;;;36.74;38.80
15229;BME280;7717;47.792;12.076;2023-06-22T10:12:31;96098.47;;;35.45;40.45
15229;BME280;7717;47.792;12.076;2023-06-22T10:14:57;96094.25;;;34.72;42.09
15229;BME280;7717;47.792;12.076;2023-06-22T10:17:22;96092.97;;;35.16;40.95
15229;BME280;7717;47.792;12.076;2023-06-22T10:19:47;96078.03;;;36.38;39.00
15229;BME280;7717;47.792;12.076;2023-06-22T10:22:13;96087.63;;;37.58;37.33
15229;BME280;7717;47.792;12.076;2023-06-22T10:24:38;96086.59;;;37.02;34.88
15229;BME280;7717;47.792;12.076;2023-06-22T10:27:12;96072.13;;;36.93;37.36
15229;BME280;7717;47.792;12.076;2023-06-22T10:29:38;96062.50;;;38.00;36.14
15229;BME280;7717;47.792;12.076;2023-06-22T10:32:04;96049.63;;;38.32;35.80
15229;BME280;7717;47.792;12.076;2023-06-22T10:34:31;96056.22;;;37.87;36.82
15229;BME280;7717;47.792;12.076;2023-06-22T10:36:56;96053.66;;;38.06;35.87
15229;BME280;7717;47.792;12.076;2023-06-22T10:39:22;96054.38;;;39.06;34.14
15229;BME280;7717;47.792;12.076;2023-06-22T10:41:47;96048.44;;;38.76;33.88
15229;BME280;7717;47.792;12.076;2023-06-22T10:44:13;96053.66;;;38.34;35.47
15229;BME280;7717;47.792;12.076;2023-06-22T10:46:38;96005.94;;;38.93;34.98
15229;BME280;7717;47.792;12.076;2023-06-22T10:49:04;96048.63;;;39.81;33.90
15229;BME280;7717;47.792;12.076;2023-06-22T10:51:29;96048.34;;;40.25;33.31
15229;BME280;7717;47.792;12.076;2023-06-22T10:53:56;96049.59;;;39.89;32.91
15229;BME280;7717;47.792;12.076;2023-06-22T10:56:21;96042.63;;;38.93;34.96
15229;BME280;7717;47.792;12.076;2023-06-22T10:58:47;96037.28;;;38.41;36.07
15229;BME280;7717;47.792;12.076;2023-06-22T11:01:12;96036.22;;;37.62;37.00
15229;BME280;7717;47.792;12.076;2023-06-22T11:03:38;96034.25;;;37.63;36.80
15229;BME280;7717;47.792;12.076;2023-06-22T11:06:03;96031.72;;;37.58;37.27
15229;BME280;7717;47.792;12.076;2023-06-22T11:08:29;96022.19;;;37.95;33.40
15229;BME280;7717;47.792;12.076;2023-06-22T11:10:54;96032.50;;;36.49;35.82
15229;BME280;7717;47.792;12.076;2023-06-22T11:13:20;96036.13;;;36.41;38.16
15229;BME280;7717;47.792;12.076;2023-06-22T11:15:45;96037.22;;;34.94;41.04
15229;BME280;7717;47.792;12.076;2023-06-22T11:18:11;96024.56;;;33.66;43.43
15229;BME280;7717;47.792;12.076;2023-06-22T11:20:36;96020.72;;;33.92;42.49
15229;BME280;7717;47.792;12.076;2023-06-22T11:23:04;95993.09;;;34.79;40.01
15229;BME280;7717;47.792;12.076;2023-06-22T11:25:30;95995.41;;;36.91;36.17
15229;BME280;7717;47.792;12.076;2023-06-22T11:27:56;95990.53;;;37.89;35.36
15229;BME280;7717;47.792;12.076;2023-06-22T11:30:21;95995.25;;;39.42;34.28
15229;BME280;7717;47.792;12.076;2023-06-22T11:32:46;95989.53;;;40.28;33.67
15229;BME280;7717;47.792;12.076;2023-06-22T11:35:12;95999.16;;;39.95;33.32
15229;BME280;7717;47.792;12.076;2023-06-22T11:37:37;96007.31;;;40.27;33.19
15229;BME280;7717;47.792;12.076;2023-06-22T11:40:03;96001.16;;;40.60;32.59
15229;BME280;7717;47.792;12.076;2023-06-22T11:42:30;96004.22;;;40.13;32.90
15229;BME280;7717;47.792;12.076;2023-06-22T11:44:55;95996.91;;;40.01;33.63
15229;BME280;7717;47.792;12.076;2023-06-22T11:47:21;95980.94;;;40.33;32.92
15229;BME280;7717;47.792;12.076;2023-06-22T11:49:46;95988.31;;;40.48;32.55
15229;BME280;7717;47.792;12.076;2023-06-22T11:52:12;95978.53;;;40.31;33.43
15229;BME280;7717;47.792;12.076;2023-06-22T11:54:37;95979.34;;;41.26;32.09
15229;BME280;7717;47.792;12.076;2023-06-22T11:57:04;95970.16;;;41.22;31.73
15229;BME280;7717;47.792;12.076;2023-06-22T11:59:30;95959.59;;;38.86;34.77
15229;BME280;7717;47.792;12.076;2023-06-22T12:01:55;95963.16;;;39.38;34.00
15229;BME280;7717;47.792;12.076;2023-06-22T12:04:21;95965.75;;;39.85;32.77
15229;BME280;7717;47.792;12.076;2023-06-22T12:06:46;95947.53;;;40.45;31.94
15229;BME280;7717;47.792;12.076;2023-06-22T12:09:12;95969.03;;;39.01;32.88
15229;BME280;7717;47.792;12.076;2023-06-22T12:11:39;95967.88;;;38.71;32.60
15229;BME280;7717;47.792;12.076;2023-06-22T12:14:04;95959.72;;;38.59;33.79
15229;BME280;7717;47.792;12.076;2023-06-22T12:16:29;95935.16;;;39.78;30.98
15229;BME280;7717;47.792;12.076;2023-06-22T12:18:55;95949.84;;;41.41;29.42
15229;BME280;7717;47.792;12.076;2023-06-22T12:21:20;95930.84;;;40.87;30.34
15229;BME280;7717;47.792;12.076;2023-06-22T12:23:46;95936.91;;;41.49;29.28
15229;BME280;7717;47.792;12.076;2023-06-22T12:26:11;95950.25;;;41.13;29.84
15229;BME280;7717;47.792;12.076;2023-06-22T12:28:36;95948.63;;;41.39;29.18
15229;BME280;7717;47.792;12.076;2023-06-22T12:31:02;95937.69;;;41.19;28.81
15229;BME280;7717;47.792;12.076;2023-06-22T12:33:27;95932.75;;;41.09;29.33
15229;BME280;7717;47.792;12.076;2023-06-22T12:35:53;95931.88;;;40.75;29.00
15229;BME280;7717;47.792;12.076;2023-06-22T12:38:18;95915.97;;;40.72;30.09
15229;BME280;7717;47.792;12.076;2023-06-22T12:40:44;95912.00;;;40.24;30.17
15229;BME280;7717;47.792;12.076;2023-06-22T12:43:09;95908.84;;;39.84;30.72
15229;BME280;7717;47.792;12.076;2023-06-22T12:45:34;95909.94;;;38.39;31.62
15229;BME280;7717;47.792;12.076;2023-06-22T12:48:00;95915.25;;;37.45;33.61
15229;BME280;7717;47.792;12.076;2023-06-22T12:50:26;95906.28;;;37.08;33.16
15229;BME280;7717;47.792;12.076;2023-06-22T12:52:51;95906.59;;;37.87;32.12
15229;BME280;7717;47.792;12.076;2023-06-22T12:55:17;95893.84;;;37.66;32.85
15229;BME280;7717;47.792;12.076;2023-06-22T12:57:42;95906.94;;;37.57;32.73
15229;BME280;7717;47.792;12.076;2023-06-22T13:00:08;95904.91;;;37.82;32.52
15229;BME280;7717;47.792;12.076;2023-06-22T13:02:35;95903.50;;;37.60;33.19
15229;BME280;7717;47.792;12.076;2023-06-22T13:05:01;95901.78;;;37.56;32.76